sensor_id;sensor_type;location;lat;lon;timestamp;P1;durP1;ratioP1;P2;durP2;ratioP2
74473;SDS011;62922;-6.168;106.796;2022-12-18T00:01:27;94.20;;;50.22;;
74473;SDS011;62922;-6.168;106.796;2022-12-18T00:03:58;92.57;;;49.97;;
74473;SDS011;62922;-6.168;106.796;2022-12-18T00:06:26;90.72;;;49.53;;
74473;SDS011;62922;-6.168;106.796;2022-12-18T00:08:55;85.65;;;49.25;;
74473;SDS011;62922;-6.168;106.796;2022-12-18T00:11:24;87.30;;;49.95;;
74473;SDS011;62922;-6.168;106.796;2022-12-18T00:13:53;88.70;;;51.35;;
74473;SDS011;62922;-6.168;106.796;2022-12-18T00:16:21;90.63;;;51.45;;
74473;SDS011;62922;-6.168;106.796;2022-12-18T00:18:49;89.07;;;52.22;;
74473;SDS011;62922;-6.168;106.796;2022-12-18T00:21:17;90.82;;;52.42;;
74473;SDS011;62922;-6.168;106.796;2022-12-18T00:23:44;95.25;;;52.83;;
74473;SDS011;62922;-6.168;106.796;2022-12-18T00:26:13;86.15;;;49.80;;
74473;SDS011;62922;-6.168;106.796;2022-12-18T00:28:41;87.40;;;49.63;;
74473;SDS011;62922;-6.168;106.796;2022-12-18T00:31:12;81.95;;;50.67;;
74473;SDS011;62922;-6.168;106.796;2022-12-18T00:33:41;87.75;;;50.45;;
74473;SDS011;62922;-6.168;106.796;2022-12-18T00:36:11;89.63;;;52.80;;
74473;SDS011;62922;-6.168;106.796;2022-12-18T00:38:40;81.75;;;47.17;;
74473;SDS011;62922;-6.168;106.796;2022-12-18T00:41:10;83.53;;;49.90;;
74473;SDS011;62922;-6.168;106.796;2022-12-18T00:43:38;92.57;;;51.55;;
74473;SDS011;62922;-6.168;106.796;2022-12-18T00:46:05;84.60;;;47.38;;
74473;SDS011;62922;-6.168;106.796;2022-12-18T00:48:32;80.70;;;43.67;;
74473;SDS011;62922;-6.168;106.796;2022-12-18T00:50:58;76.68;;;40.67;;
74473;SDS011;62922;-6.168;106.796;2022-12-18T00:53:24;81.18;;;43.58;;
74473;SDS011;62922;-6.168;106.796;2022-12-18T00:55:53;76.85;;;41.25;;
74473;SDS011;62922;-6.168;106.796;2022-12-18T00:58:20;68.68;;;37.83;;
74473;SDS011;62922;-6.168;106.796;2022-12-18T01:00:49;70.63;;;37.67;;
74473;SDS011;62922;-6.168;106.796;2022-12-18T01:03:15;69.22;;;33.88;;
74473;SDS011;62922;-6.168;106.796;2022-12-18T01:05:42;66.07;;;32.20;;
74473;SDS011;62922;-6.168;106.796;2022-12-18T01:08:08;61.70;;;31.73;;
74473;SDS011;62922;-6.168;106.796;2022-12-18T01:10:35;60.10;;;29.92;;
74473;SDS011;62922;-6.168;106.796;2022-12-18T01:13:01;52.47;;;29.63;;
74473;SDS011;62922;-6.168;106.796;2022-12-18T01:15:30;60.80;;;27.38;;
74473;SDS011;62922;-6.168;106.796;2022-12-18T01:17:56;51.58;;;27.48;;
74473;SDS011;62922;-6.168;106.796;2022-12-18T01:20:22;53.13;;;26.33;;
74473;SDS011;62922;-6.168;106.796;2022-12-18T01:22:49;52.63;;;26.00;;
74473;SDS011;62922;-6.168;106.796;2022-12-18T01:25:15;50.53;;;24.38;;
74473;SDS011;62922;-6.168;106.796;2022-12-18T01:27:41;52.38;;;23.77;;
74473;SDS011;62922;-6.168;106.796;2022-12-18T01:30:08;48.33;;;22.98;;
74473;SDS011;62922;-6.168;106.796;2022-12-18T01:32:34;50.70;;;23.27;;
74473;SDS011;62922;-6.168;106.796;2022-12-18T01:35:01;46.65;;;20.60;;
74473;SDS011;62922;-6.168;106.796;2022-12-18T01:37:27;48.75;;;20.35;;
74473;SDS011;62922;-6.168;106.796;2022-12-18T01:39:53;45.25;;;20.25;;
74473;SDS011;62922;-6.168;106.796;2022-12-18T01:42:21;49.17;;;19.85;;
74473;SDS011;62922;-6.168;106.796;2022-12-18T01:47:23;47.15;;;19.73;;
74473;SDS011;62922;-6.168;106.796;2022-12-18T01:49:56;46.00;;;19.17;;
74473;SDS011;62922;-6.168;106.796;2022-12-18T01:52:25;45.08;;;19.23;;
74473;SDS011;62922;-6.168;106.796;2022-12-18T01:54:54;48.58;;;19.08;;
74473;SDS011;62922;-6.168;106.796;2022-12-18T01:57:24;42.88;;;18.83;;
74473;SDS011;62922;-6.168;106.796;2022-12-18T01:59:52;46.97;;;19.92;;
74473;SDS011;62922;-6.168;106.796;2022-12-18T02:02:21;41.53;;;18.70;;
74473;SDS011;62922;-6.168;106.796;2022-12-18T02:04:48;45.83;;;18.73;;
74473;SDS011;62922;-6.168;106.796;2022-12-18T02:07:17;44.30;;;17.67;;
74473;SDS011;62922;-6.168;106.796;2022-12-18T02:09:48;41.13;;;17.52;;
74473;SDS011;62922;-6.168;106.796;2022-12-18T02:12:21;40.25;;;14.95;;
74473;SDS011;62922;-6.168;106.796;2022-12-18T02:17:21;37.22;;;13.35;;
74473;SDS011;62922;-6.168;106.796;2022-12-18T02:27:40;32.70;;;10.48;;
74473;SDS011;62922;-6.168;106.796;2022-12-18T02:30:10;36.05;;;11.48;;
74473;SDS011;62922;-6.168;106.796;2022-12-18T02:32:39;32.58;;;11.20;;
74473;SDS011;62922;-6.168;106.796;2022-12-18T02:35:12;33.25;;;11.07;;
74473;SDS011;62922;-6.168;106.796;2022-12-18T02:37:45;30.92;;;10.90;;
74473;SDS011;62922;-6.168;106.796;2022-12-18T02:40:12;31.13;;;10.75;;
74473;SDS011;62922;-6.168;106.796;2022-12-18T02:42:42;37.47;;;11.38;;
74473;SDS011;62922;-6.168;106.796;2022-12-18T02:45:08;33.67;;;10.88;;
74473;SDS011;62922;-6.168;106.796;2022-12-18T02:47:36;27.73;;;10.02;;
74473;SDS011;62922;-6.168;106.796;2022-12-18T02:55:15;29.48;;;9.63;;
74473;SDS011;62922;-6.168;106.796;2022-12-18T02:57:47;30.05;;;9.65;;
74473;SDS011;62922;-6.168;106.796;2022-12-18T03:00:20;27.13;;;9.63;;
74473;SDS011;62922;-6.168;106.796;2022-12-18T03:07:56;33.03;;;10.63;;
74473;SDS011;62922;-6.168;106.796;2022-12-18T03:10:28;26.50;;;10.52;;
74473;SDS011;62922;-6.168;106.796;2022-12-18T03:15:30;35.47;;;11.90;;
74473;SDS011;62922;-6.168;106.796;2022-12-18T03:18:04;34.28;;;12.25;;
74473;SDS011;62922;-6.168;106.796;2022-12-18T03:20:38;39.15;;;12.30;;
74473;SDS011;62922;-6.168;106.796;2022-12-18T03:25:39;42.38;;;12.98;;
74473;SDS011;62922;-6.168;106.796;2022-12-18T03:28:33;31.85;;;11.68;;
74473;SDS011;62922;-6.168;106.796;2022-12-18T03:30:56;32.05;;;12.23;;
74473;SDS011;62922;-6.168;106.796;2022-12-18T03:35:55;36.70;;;12.10;;
74473;SDS011;62922;-6.168;106.796;2022-12-18T03:38:24;36.80;;;11.52;;
74473;SDS011;62922;-6.168;106.796;2022-12-18T03:40:53;33.25;;;10.57;;
74473;SDS011;62922;-6.168;106.796;2022-12-18T03:49:10;31.67;;;9.70;;
74473;SDS011;62922;-6.168;106.796;2022-12-18T03:54:11;30.23;;;9.48;;
74473;SDS011;62922;-6.168;106.796;2022-12-18T03:56:40;27.90;;;9.13;;
74473;SDS011;62922;-6.168;106.796;2022-12-18T03:59:15;30.67;;;9.48;;
74473;SDS011;62922;-6.168;106.796;2022-12-18T04:01:43;42.85;;;10.73;;
74473;SDS011;62922;-6.168;106.796;2022-12-18T04:04:13;29.10;;;10.02;;
74473;SDS011;62922;-6.168;106.796;2022-12-18T04:06:42;31.15;;;10.15;;
74473;SDS011;62922;-6.168;106.796;2022-12-18T04:09:14;32.42;;;10.65;;
74473;SDS011;62922;-6.168;106.796;2022-12-18T04:11:41;33.92;;;10.35;;
74473;SDS011;62922;-6.168;106.796;2022-12-18T04:14:10;36.13;;;11.32;;
74473;SDS011;62922;-6.168;106.796;2022-12-18T04:16:36;35.22;;;12.27;;
74473;SDS011;62922;-6.168;106.796;2022-12-18T04:19:03;43.08;;;12.55;;
74473;SDS011;62922;-6.168;106.796;2022-12-18T04:21:30;42.97;;;13.57;;
74473;SDS011;62922;-6.168;106.796;2022-12-18T04:23:56;41.47;;;15.80;;
74473;SDS011;62922;-6.168;106.796;2022-12-18T04:26:23;44.72;;;18.10;;
74473;SDS011;62922;-6.168;106.796;2022-12-18T04:28:49;51.55;;;19.95;;
74473;SDS011;62922;-6.168;106.796;2022-12-18T04:31:15;47.33;;;19.42;;
74473;SDS011;62922;-6.168;106.796;2022-12-18T04:33:41;48.38;;;20.42;;
74473;SDS011;62922;-6.168;106.796;2022-12-18T04:36:08;51.15;;;20.73;;
74473;SDS011;62922;-6.168;106.796;2022-12-18T04:38:34;50.63;;;20.98;;
74473;SDS011;62922;-6.168;106.796;2022-12-18T04:41:01;50.05;;;20.63;;
74473;SDS011;62922;-6.168;106.796;2022-12-18T04:43:27;49.55;;;20.77;;
74473;SDS011;62922;-6.168;106.796;2022-12-18T04:45:53;51.60;;;20.80;;
74473;SDS011;62922;-6.168;106.796;2022-12-18T04:48:26;43.97;;;20.10;;
74473;SDS011;62922;-6.168;106.796;2022-12-18T04:50:52;50.28;;;20.90;;
74473;SDS011;62922;-6.168;106.796;2022-12-18T04:53:19;45.58;;;19.77;;
74473;SDS011;62922;-6.168;106.796;2022-12-18T04:55:45;48.40;;;20.35;;
74473;SDS011;62922;-6.168;106.796;2022-12-18T04:58:11;57.33;;;21.08;;
74473;SDS011;62922;-6.168;106.796;2022-12-18T05:00:38;54.38;;;19.70;;
74473;SDS011;62922;-6.168;106.796;2022-12-18T05:03:04;48.75;;;21.58;;
74473;SDS011;62922;-6.168;106.796;2022-12-18T05:05:30;48.28;;;20.67;;
74473;SDS011;62922;-6.168;106.796;2022-12-18T05:07:57;46.60;;;19.88;;
74473;SDS011;62922;-6.168;106.796;2022-12-18T05:10:23;44.83;;;18.48;;
74473;SDS011;62922;-6.168;106.796;2022-12-18T05:12:49;42.50;;;17.35;;
74473;SDS011;62922;-6.168;106.796;2022-12-18T05:15:18;41.92;;;17.17;;
74473;SDS011;62922;-6.168;106.796;2022-12-18T05:17:44;39.15;;;16.90;;
74473;SDS011;62922;-6.168;106.796;2022-12-18T05:20:11;38.72;;;16.13;;
74473;SDS011;62922;-6.168;106.796;2022-12-18T05:22:37;36.47;;;14.82;;
74473;SDS011;62922;-6.168;106.796;2022-12-18T05:25:03;40.22;;;15.20;;
74473;SDS011;62922;-6.168;106.796;2022-12-18T05:27:30;42.85;;;14.75;;
74473;SDS011;62922;-6.168;106.796;2022-12-18T05:29:56;36.85;;;13.93;;
74473;SDS011;62922;-6.168;106.796;2022-12-18T05:32:22;37.55;;;14.57;;
74473;SDS011;62922;-6.168;106.796;2022-12-18T05:34:49;33.65;;;14.20;;
74473;SDS011;62922;-6.168;106.796;2022-12-18T05:37:15;38.08;;;13.52;;
74473;SDS011;62922;-6.168;106.796;2022-12-18T05:39:42;37.45;;;13.13;;
74473;SDS011;62922;-6.168;106.796;2022-12-18T05:42:08;36.95;;;13.35;;
74473;SDS011;62922;-6.168;106.796;2022-12-18T05:44:37;32.17;;;13.00;;
74473;SDS011;62922;-6.168;106.796;2022-12-18T05:47:03;36.50;;;13.30;;
74473;SDS011;62922;-6.168;106.796;2022-12-18T05:49:30;38.33;;;13.98;;
74473;SDS011;62922;-6.168;106.796;2022-12-18T05:51:56;38.10;;;13.77;;
74473;SDS011;62922;-6.168;106.796;2022-12-18T05:54:26;35.70;;;14.40;;
74473;SDS011;62922;-6.168;106.796;2022-12-18T05:56:53;57.13;;;20.08;;
74473;SDS011;62922;-6.168;106.796;2022-12-18T05:59:19;102.20;;;32.80;;
74473;SDS011;62922;-6.168;106.796;2022-12-18T06:01:46;73.75;;;30.13;;
74473;SDS011;62922;-6.168;106.796;2022-12-18T06:04:12;82.70;;;29.20;;
74473;SDS011;62922;-6.168;106.796;2022-12-18T06:06:38;71.10;;;26.48;;
74473;SDS011;62922;-6.168;106.796;2022-12-18T06:09:05;60.90;;;24.27;;
74473;SDS011;62922;-6.168;106.796;2022-12-18T06:11:34;58.05;;;23.98;;
74473;SDS011;62922;-6.168;106.796;2022-12-18T06:14:02;55.85;;;22.20;;
74473;SDS011;62922;-6.168;106.796;2022-12-18T06:16:31;60.03;;;22.42;;
74473;SDS011;62922;-6.168;106.796;2022-12-18T06:19:00;53.67;;;20.65;;
74473;SDS011;62922;-6.168;106.796;2022-12-18T06:21:28;56.08;;;20.33;;
74473;SDS011;62922;-6.168;106.796;2022-12-18T06:23:55;56.67;;;19.23;;
74473;SDS011;62922;-6.168;106.796;2022-12-18T06:26:22;49.45;;;19.95;;
74473;SDS011;62922;-6.168;106.796;2022-12-18T06:28:49;44.83;;;17.92;;
74473;SDS011;62922;-6.168;106.796;2022-12-18T06:31:15;41.78;;;18.30;;
74473;SDS011;62922;-6.168;106.796;2022-12-18T06:33:41;45.72;;;18.48;;
74473;SDS011;62922;-6.168;106.796;2022-12-18T06:36:09;39.67;;;17.45;;
74473;SDS011;62922;-6.168;106.796;2022-12-18T06:38:38;44.28;;;17.83;;
74473;SDS011;62922;-6.168;106.796;2022-12-18T06:41:06;45.50;;;18.48;;
74473;SDS011;62922;-6.168;106.796;2022-12-18T06:43:39;46.78;;;19.15;;
74473;SDS011;62922;-6.168;106.796;2022-12-18T06:46:05;41.28;;;18.40;;
74473;SDS011;62922;-6.168;106.796;2022-12-18T06:48:32;41.42;;;18.75;;
74473;SDS011;62922;-6.168;106.796;2022-12-18T06:50:58;47.05;;;19.13;;
74473;SDS011;62922;-6.168;106.796;2022-12-18T06:53:25;41.15;;;19.20;;
74473;SDS011;62922;-6.168;106.796;2022-12-18T06:55:51;40.88;;;19.40;;
74473;SDS011;62922;-6.168;106.796;2022-12-18T06:58:17;41.08;;;18.77;;
74473;SDS011;62922;-6.168;106.796;2022-12-18T07:00:43;47.65;;;20.52;;
74473;SDS011;62922;-6.168;106.796;2022-12-18T07:03:10;38.95;;;20.08;;
74473;SDS011;62922;-6.168;106.796;2022-12-18T07:05:43;43.10;;;19.92;;
74473;SDS011;62922;-6.168;106.796;2022-12-18T07:08:09;45.88;;;21.35;;
74473;SDS011;62922;-6.168;106.796;2022-12-18T07:13:09;39.97;;;20.52;;
74473;SDS011;62922;-6.168;106.796;2022-12-18T07:15:36;40.80;;;20.90;;
74473;SDS011;62922;-6.168;106.796;2022-12-18T07:18:05;39.60;;;21.27;;
74473;SDS011;62922;-6.168;106.796;2022-12-18T07:20:31;43.67;;;23.95;;
74473;SDS011;62922;-6.168;106.796;2022-12-18T07:22:57;42.38;;;23.70;;
74473;SDS011;62922;-6.168;106.796;2022-12-18T07:25:23;49.47;;;24.30;;
74473;SDS011;62922;-6.168;106.796;2022-12-18T07:27:50;43.08;;;24.08;;
74473;SDS011;62922;-6.168;106.796;2022-12-18T07:30:19;40.55;;;23.90;;
74473;SDS011;62922;-6.168;106.796;2022-12-18T07:32:48;44.70;;;23.15;;
74473;SDS011;62922;-6.168;106.796;2022-12-18T07:35:14;74.95;;;26.13;;
74473;SDS011;62922;-6.168;106.796;2022-12-18T07:37:41;47.22;;;24.05;;
74473;SDS011;62922;-6.168;106.796;2022-12-18T07:40:07;45.25;;;22.77;;
74473;SDS011;62922;-6.168;106.796;2022-12-18T07:42:34;39.78;;;21.92;;
74473;SDS011;62922;-6.168;106.796;2022-12-18T07:45:02;45.78;;;22.70;;
74473;SDS011;62922;-6.168;106.796;2022-12-18T07:47:29;40.15;;;21.90;;
74473;SDS011;62922;-6.168;106.796;2022-12-18T07:49:56;38.13;;;20.58;;
74473;SDS011;62922;-6.168;106.796;2022-12-18T07:52:25;36.65;;;19.00;;
74473;SDS011;62922;-6.168;106.796;2022-12-18T07:54:52;37.50;;;18.67;;
74473;SDS011;62922;-6.168;106.796;2022-12-18T07:57:18;36.30;;;18.52;;
74473;SDS011;62922;-6.168;106.796;2022-12-18T07:59:44;38.10;;;17.95;;
74473;SDS011;62922;-6.168;106.796;2022-12-18T08:02:14;35.47;;;17.65;;
74473;SDS011;62922;-6.168;106.796;2022-12-18T08:04:40;40.65;;;18.10;;
74473;SDS011;62922;-6.168;106.796;2022-12-18T08:07:06;40.22;;;17.48;;
74473;SDS011;62922;-6.168;106.796;2022-12-18T08:09:32;35.97;;;17.33;;
74473;SDS011;62922;-6.168;106.796;2022-12-18T08:11:59;40.40;;;17.63;;
74473;SDS011;62922;-6.168;106.796;2022-12-18T08:14:25;32.22;;;16.45;;
74473;SDS011;62922;-6.168;106.796;2022-12-18T08:16:51;38.60;;;17.77;;
74473;SDS011;62922;-6.168;106.796;2022-12-18T08:19:18;34.42;;;16.45;;
74473;SDS011;62922;-6.168;106.796;2022-12-18T08:21:44;35.75;;;16.45;;
74473;SDS011;62922;-6.168;106.796;2022-12-18T08:24:11;32.53;;;16.75;;
74473;SDS011;62922;-6.168;106.796;2022-12-18T08:26:37;35.25;;;16.33;;
74473;SDS011;62922;-6.168;106.796;2022-12-18T08:29:04;38.78;;;17.13;;
74473;SDS011;62922;-6.168;106.796;2022-12-18T08:31:32;34.88;;;15.95;;
74473;SDS011;62922;-6.168;106.796;2022-12-18T08:34:01;42.50;;;16.60;;
74473;SDS011;62922;-6.168;106.796;2022-12-18T08:36:28;34.15;;;16.67;;
74473;SDS011;62922;-6.168;106.796;2022-12-18T08:38:57;41.10;;;17.60;;
74473;SDS011;62922;-6.168;106.796;2022-12-18T08:41:24;33.40;;;18.05;;
74473;SDS011;62922;-6.168;106.796;2022-12-18T08:43:50;42.08;;;16.17;;
74473;SDS011;62922;-6.168;106.796;2022-12-18T08:46:20;45.97;;;16.23;;
74473;SDS011;62922;-6.168;106.796;2022-12-18T08:48:49;41.38;;;17.20;;
74473;SDS011;62922;-6.168;106.796;2022-12-18T08:51:17;35.67;;;16.25;;
74473;SDS011;62922;-6.168;106.796;2022-12-18T08:53:43;37.70;;;16.48;;
74473;SDS011;62922;-6.168;106.796;2022-12-18T08:56:10;38.25;;;17.00;;
74473;SDS011;62922;-6.168;106.796;2022-12-18T08:58:38;37.15;;;15.90;;
74473;SDS011;62922;-6.168;106.796;2022-12-18T09:01:06;41.58;;;16.05;;
74473;SDS011;62922;-6.168;106.796;2022-12-18T09:03:34;37.33;;;15.90;;
74473;SDS011;62922;-6.168;106.796;2022-12-18T09:06:03;34.83;;;16.10;;
74473;SDS011;62922;-6.168;106.796;2022-12-18T09:08:30;36.25;;;16.52;;
74473;SDS011;62922;-6.168;106.796;2022-12-18T09:10:57;34.95;;;16.00;;
74473;SDS011;62922;-6.168;106.796;2022-12-18T09:13:23;37.58;;;15.85;;
74473;SDS011;62922;-6.168;106.796;2022-12-18T09:15:52;35.88;;;16.98;;
74473;SDS011;62922;-6.168;106.796;2022-12-18T09:18:21;40.67;;;17.20;;
74473;SDS011;62922;-6.168;106.796;2022-12-18T09:20:48;34.20;;;17.40;;
74473;SDS011;62922;-6.168;106.796;2022-12-18T09:23:17;42.33;;;18.25;;
74473;SDS011;62922;-6.168;106.796;2022-12-18T09:25:46;35.20;;;17.00;;
74473;SDS011;62922;-6.168;106.796;2022-12-18T09:28:14;38.63;;;17.10;;
74473;SDS011;62922;-6.168;106.796;2022-12-18T09:30:45;42.17;;;18.27;;
74473;SDS011;62922;-6.168;106.796;2022-12-18T09:33:15;36.95;;;17.42;;
74473;SDS011;62922;-6.168;106.796;2022-12-18T09:35:42;34.13;;;16.77;;
74473;SDS011;62922;-6.168;106.796;2022-12-18T09:38:14;37.53;;;17.42;;
74473;SDS011;62922;-6.168;106.796;2022-12-18T09:40:44;39.75;;;18.02;;
74473;SDS011;62922;-6.168;106.796;2022-12-18T09:43:17;43.35;;;18.55;;
74473;SDS011;62922;-6.168;106.796;2022-12-18T09:45:51;33.78;;;17.27;;
74473;SDS011;62922;-6.168;106.796;2022-12-18T09:48:26;34.80;;;17.25;;
74473;SDS011;62922;-6.168;106.796;2022-12-18T09:50:59;37.92;;;18.40;;
74473;SDS011;62922;-6.168;106.796;2022-12-18T09:53:35;35.72;;;16.85;;
74473;SDS011;62922;-6.168;106.796;2022-12-18T09:56:03;34.03;;;16.58;;
74473;SDS011;62922;-6.168;106.796;2022-12-18T09:58:41;35.63;;;16.27;;
74473;SDS011;62922;-6.168;106.796;2022-12-18T10:01:15;34.53;;;17.13;;
74473;SDS011;62922;-6.168;106.796;2022-12-18T10:03:48;39.83;;;17.17;;
74473;SDS011;62922;-6.168;106.796;2022-12-18T10:13:53;31.45;;;16.25;;
74473;SDS011;62922;-6.168;106.796;2022-12-18T10:19:42;34.80;;;16.65;;
74473;SDS011;62922;-6.168;106.796;2022-12-18T10:27:23;37.45;;;17.58;;
74473;SDS011;62922;-6.168;106.796;2022-12-18T10:29:51;38.20;;;17.65;;
74473;SDS011;62922;-6.168;106.796;2022-12-18T10:32:23;37.75;;;17.23;;
74473;SDS011;62922;-6.168;106.796;2022-12-18T10:34:51;35.88;;;16.63;;
74473;SDS011;62922;-6.168;106.796;2022-12-18T10:37:21;33.60;;;16.20;;
74473;SDS011;62922;-6.168;106.796;2022-12-18T10:42:20;32.05;;;17.25;;
74473;SDS011;62922;-6.168;106.796;2022-12-18T10:44:47;36.75;;;18.13;;
74473;SDS011;62922;-6.168;106.796;2022-12-18T10:47:31;38.72;;;17.15;;
74473;SDS011;62922;-6.168;106.796;2022-12-18T10:50:00;39.30;;;17.50;;
74473;SDS011;62922;-6.168;106.796;2022-12-18T10:52:27;40.45;;;18.02;;
74473;SDS011;62922;-6.168;106.796;2022-12-18T10:54:55;39.83;;;18.48;;
74473;SDS011;62922;-6.168;106.796;2022-12-18T10:59:53;33.42;;;17.10;;
74473;SDS011;62922;-6.168;106.796;2022-12-18T11:05:44;38.47;;;17.70;;
74473;SDS011;62922;-6.168;106.796;2022-12-18T11:07:55;36.60;;;17.15;;
74473;SDS011;62922;-6.168;106.796;2022-12-18T11:10:26;35.72;;;16.88;;
74473;SDS011;62922;-6.168;106.796;2022-12-18T11:15:32;31.23;;;15.88;;
74473;SDS011;62922;-6.168;106.796;2022-12-18T11:18:02;34.72;;;15.85;;
74473;SDS011;62922;-6.168;106.796;2022-12-18T11:20:30;32.78;;;15.50;;
74473;SDS011;62922;-6.168;106.796;2022-12-18T11:23:00;36.30;;;15.85;;
74473;SDS011;62922;-6.168;106.796;2022-12-18T11:25:28;37.47;;;16.58;;
74473;SDS011;62922;-6.168;106.796;2022-12-18T11:27:58;33.35;;;15.80;;
74473;SDS011;62922;-6.168;106.796;2022-12-18T11:38:04;33.80;;;15.77;;
74473;SDS011;62922;-6.168;106.796;2022-12-18T11:40:37;37.80;;;15.85;;
74473;SDS011;62922;-6.168;106.796;2022-12-18T11:48:30;33.13;;;15.18;;
74473;SDS011;62922;-6.168;106.796;2022-12-18T11:51:04;32.95;;;15.43;;
74473;SDS011;62922;-6.168;106.796;2022-12-18T11:53:35;31.60;;;14.68;;
74473;SDS011;62922;-6.168;106.796;2022-12-18T11:56:11;34.80;;;15.93;;
74473;SDS011;62922;-6.168;106.796;2022-12-18T11:58:44;34.05;;;15.85;;
74473;SDS011;62922;-6.168;106.796;2022-12-18T12:03:52;34.42;;;16.80;;
74473;SDS011;62922;-6.168;106.796;2022-12-18T12:14:44;34.78;;;15.60;;
74473;SDS011;62922;-6.168;106.796;2022-12-18T12:19:45;35.53;;;16.17;;
74473;SDS011;62922;-6.168;106.796;2022-12-18T12:23:18;35.05;;;16.30;;
74473;SDS011;62922;-6.168;106.796;2022-12-18T12:25:25;41.20;;;16.52;;
74473;SDS011;62922;-6.168;106.796;2022-12-18T12:33:08;40.72;;;21.17;;
74473;SDS011;62922;-6.168;106.796;2022-12-18T12:40:46;51.80;;;29.02;;
74473;SDS011;62922;-6.168;106.796;2022-12-18T12:43:53;50.28;;;27.83;;
74473;SDS011;62922;-6.168;106.796;2022-12-18T12:46:23;49.33;;;25.70;;
74473;SDS011;62922;-6.168;106.796;2022-12-18T12:51:21;43.10;;;21.83;;
74473;SDS011;62922;-6.168;106.796;2022-12-18T12:53:51;41.00;;;22.90;;
74473;SDS011;62922;-6.168;106.796;2022-12-18T12:56:20;50.25;;;30.08;;
74473;SDS011;62922;-6.168;106.796;2022-12-18T13:11:15;57.75;;;37.30;;
74473;SDS011;62922;-6.168;106.796;2022-12-18T13:13:58;55.00;;;34.22;;
74473;SDS011;62922;-6.168;106.796;2022-12-18T13:16:24;59.35;;;31.52;;
74473;SDS011;62922;-6.168;106.796;2022-12-18T13:18:54;58.83;;;31.05;;
74473;SDS011;62922;-6.168;106.796;2022-12-18T13:23:55;48.60;;;26.73;;
74473;SDS011;62922;-6.168;106.796;2022-12-18T13:28:50;51.83;;;25.42;;
74473;SDS011;62922;-6.168;106.796;2022-12-18T13:33:49;49.58;;;26.00;;
74473;SDS011;62922;-6.168;106.796;2022-12-18T13:38:45;43.08;;;23.65;;
74473;SDS011;62922;-6.168;106.796;2022-12-18T13:48:40;55.90;;;27.80;;
74473;SDS011;62922;-6.168;106.796;2022-12-18T13:51:19;51.15;;;26.27;;
74473;SDS011;62922;-6.168;106.796;2022-12-18T13:53:49;54.20;;;26.75;;
74473;SDS011;62922;-6.168;106.796;2022-12-18T13:56:22;52.75;;;28.90;;
74473;SDS011;62922;-6.168;106.796;2022-12-18T14:01:24;54.08;;;29.63;;
74473;SDS011;62922;-6.168;106.796;2022-12-18T14:03:50;70.93;;;39.47;;
74473;SDS011;62922;-6.168;106.796;2022-12-18T14:06:34;65.95;;;38.10;;
74473;SDS011;62922;-6.168;106.796;2022-12-18T14:09:00;63.53;;;34.63;;
74473;SDS011;62922;-6.168;106.796;2022-12-18T14:11:28;64.88;;;32.45;;
74473;SDS011;62922;-6.168;106.796;2022-12-18T14:13:55;61.13;;;29.88;;
74473;SDS011;62922;-6.168;106.796;2022-12-18T14:16:22;53.15;;;29.13;;
74473;SDS011;62922;-6.168;106.796;2022-12-18T14:21:23;56.33;;;28.60;;
74473;SDS011;62922;-6.168;106.796;2022-12-18T14:26:25;52.13;;;25.55;;
74473;SDS011;62922;-6.168;106.796;2022-12-18T14:29:20;48.08;;;23.63;;
74473;SDS011;62922;-6.168;106.796;2022-12-18T14:34:22;63.22;;;23.50;;
74473;SDS011;62922;-6.168;106.796;2022-12-18T14:36:52;46.53;;;22.23;;
74473;SDS011;62922;-6.168;106.796;2022-12-18T14:39:21;50.05;;;23.85;;
74473;SDS011;62922;-6.168;106.796;2022-12-18T14:41:49;46.47;;;22.88;;
74473;SDS011;62922;-6.168;106.796;2022-12-18T14:44:15;48.55;;;22.98;;
74473;SDS011;62922;-6.168;106.796;2022-12-18T14:46:42;46.80;;;21.88;;
74473;SDS011;62922;-6.168;106.796;2022-12-18T14:51:47;45.03;;;20.48;;
74473;SDS011;62922;-6.168;106.796;2022-12-18T14:54:17;46.40;;;20.70;;
74473;SDS011;62922;-6.168;106.796;2022-12-18T14:56:47;49.63;;;20.90;;
74473;SDS011;62922;-6.168;106.796;2022-12-18T15:04:35;40.10;;;19.58;;
74473;SDS011;62922;-6.168;106.796;2022-12-18T15:09:36;41.25;;;19.88;;
74473;SDS011;62922;-6.168;106.796;2022-12-18T15:12:04;46.10;;;20.70;;
74473;SDS011;62922;-6.168;106.796;2022-12-18T15:17:00;48.90;;;22.40;;
74473;SDS011;62922;-6.168;106.796;2022-12-18T15:19:32;43.50;;;22.05;;
74473;SDS011;62922;-6.168;106.796;2022-12-18T15:24:41;49.47;;;23.83;;
74473;SDS011;62922;-6.168;106.796;2022-12-18T15:27:18;44.00;;;21.50;;
74473;SDS011;62922;-6.168;106.796;2022-12-18T15:32:22;50.67;;;21.63;;
74473;SDS011;62922;-6.168;106.796;2022-12-18T15:34:48;49.72;;;22.55;;
74473;SDS011;62922;-6.168;106.796;2022-12-18T15:37:15;45.63;;;22.98;;
74473;SDS011;62922;-6.168;106.796;2022-12-18T15:39:41;47.72;;;21.75;;
74473;SDS011;62922;-6.168;106.796;2022-12-18T15:42:08;45.03;;;22.25;;
74473;SDS011;62922;-6.168;106.796;2022-12-18T15:44:38;49.35;;;22.40;;
74473;SDS011;62922;-6.168;106.796;2022-12-18T15:47:07;47.22;;;22.65;;
74473;SDS011;62922;-6.168;106.796;2022-12-18T15:49:37;47.22;;;21.95;;
74473;SDS011;62922;-6.168;106.796;2022-12-18T15:52:05;46.42;;;22.42;;
74473;SDS011;62922;-6.168;106.796;2022-12-18T15:54:36;41.97;;;22.08;;
74473;SDS011;62922;-6.168;106.796;2022-12-18T15:57:23;48.72;;;22.17;;
74473;SDS011;62922;-6.168;106.796;2022-12-18T15:59:50;45.13;;;21.63;;
74473;SDS011;62922;-6.168;106.796;2022-12-18T16:02:19;50.80;;;22.48;;
74473;SDS011;62922;-6.168;106.796;2022-12-18T16:04:49;42.95;;;22.70;;
74473;SDS011;62922;-6.168;106.796;2022-12-18T16:07:24;46.08;;;23.02;;
74473;SDS011;62922;-6.168;106.796;2022-12-18T16:09:50;44.92;;;22.30;;
74473;SDS011;62922;-6.168;106.796;2022-12-18T16:12:20;45.60;;;22.98;;
74473;SDS011;62922;-6.168;106.796;2022-12-18T16:14:48;49.33;;;23.43;;
74473;SDS011;62922;-6.168;106.796;2022-12-18T16:17:15;43.80;;;22.88;;
74473;SDS011;62922;-6.168;106.796;2022-12-18T16:19:42;53.47;;;24.02;;
74473;SDS011;62922;-6.168;106.796;2022-12-18T16:22:17;49.88;;;23.67;;
74473;SDS011;62922;-6.168;106.796;2022-12-18T16:24:46;51.95;;;23.38;;
74473;SDS011;62922;-6.168;106.796;2022-12-18T16:27:14;47.03;;;22.52;;
74473;SDS011;62922;-6.168;106.796;2022-12-18T16:29:40;50.90;;;24.17;;
74473;SDS011;62922;-6.168;106.796;2022-12-18T16:32:06;47.47;;;23.75;;
74473;SDS011;62922;-6.168;106.796;2022-12-18T16:34:37;46.80;;;23.80;;
74473;SDS011;62922;-6.168;106.796;2022-12-18T16:37:04;46.35;;;23.05;;
74473;SDS011;62922;-6.168;106.796;2022-12-18T16:39:32;49.65;;;24.75;;
74473;SDS011;62922;-6.168;106.796;2022-12-18T16:41:59;46.83;;;23.25;;
74473;SDS011;62922;-6.168;106.796;2022-12-18T16:44:27;46.13;;;23.65;;
74473;SDS011;62922;-6.168;106.796;2022-12-18T16:46:53;48.88;;;23.35;;
74473;SDS011;62922;-6.168;106.796;2022-12-18T16:49:19;43.42;;;21.67;;
74473;SDS011;62922;-6.168;106.796;2022-12-18T16:51:46;48.25;;;21.17;;